sensor_id;sensor_type;location;lat;lon;timestamp;temperature;humidity
13330;DHT22;6734;48.638;8.896;2023-01-15T00:00:04;7.90;99.90
13330;DHT22;6734;48.638;8.896;2023-01-15T00:02:30;8.00;99.90
13330;DHT22;6734;48.638;8.896;2023-01-15T00:04:56;8.20;99.90
13330;DHT22;6734;48.638;8.896;2023-01-15T00:07:21;8.10;99.90
13330;DHT22;6734;48.638;8.896;2023-01-15T00:12:14;8.20;99.90
13330;DHT22;6734;48.638;8.896;2023-01-15T00:14:40;8.20;99.90
13330;DHT22;6734;48.638;8.896;2023-01-15T00:17:06;8.20;99.90
13330;DHT22;6734;48.638;8.896;2023-01-15T00:19:31;8.20;99.90
13330;DHT22;6734;48.638;8.896;2023-01-15T00:24:23;8.20;99.90
13330;DHT22;6734;48.638;8.896;2023-01-15T00:27:09;8.30;99.90
13330;DHT22;6734;48.638;8.896;2023-01-15T00:29:53;8.30;99.90
13330;DHT22;6734;48.638;8.896;2023-01-15T00:32:19;8.30;99.90
13330;DHT22;6734;48.638;8.896;2023-01-15T00:34:44;8.30;99.90
13330;DHT22;6734;48.638;8.896;2023-01-15T00:37:10;8.30;99.90
13330;DHT22;6734;48.638;8.896;2023-01-15T00:39:35;8.30;99.90
13330;DHT22;6734;48.638;8.896;2023-01-15T00:42:01;8.40;99.90
13330;DHT22;6734;48.638;8.896;2023-01-15T00:46:53;8.50;99.90
13330;DHT22;6734;48.638;8.896;2023-01-15T00:49:19;8.60;99.90
13330;DHT22;6734;48.638;8.896;2023-01-15T00:51:44;8.60;99.90
13330;DHT22;6734;48.638;8.896;2023-01-15T00:54:10;8.60;99.90
13330;DHT22;6734;48.638;8.896;2023-01-15T00:56:35;8.60;99.90
13330;DHT22;6734;48.638;8.896;2023-01-15T00:59:03;8.50;99.90
13330;DHT22;6734;48.638;8.896;2023-01-15T01:06:20;8.70;99.90
13330;DHT22;6734;48.638;8.896;2023-01-15T01:08:47;8.70;99.90
13330;DHT22;6734;48.638;8.896;2023-01-15T01:11:17;8.60;99.90
13330;DHT22;6734;48.638;8.896;2023-01-15T01:13:44;8.70;99.90
13330;DHT22;6734;48.638;8.896;2023-01-15T01:18:50;8.70;99.90
13330;DHT22;6734;48.638;8.896;2023-01-15T01:21:16;8.80;99.90
13330;DHT22;6734;48.638;8.896;2023-01-15T01:23:42;8.80;99.90
13330;DHT22;6734;48.638;8.896;2023-01-15T01:26:08;8.90;99.90
13330;DHT22;6734;48.638;8.896;2023-01-15T01:28:34;9.00;99.90
13330;DHT22;6734;48.638;8.896;2023-01-15T01:31:03;9.10;99.90
13330;DHT22;6734;48.638;8.896;2023-01-15T01:35:55;9.30;99.90
13330;DHT22;6734;48.638;8.896;2023-01-15T01:40:47;9.30;99.90
13330;DHT22;6734;48.638;8.896;2023-01-15T01:43:24;9.30;99.90
13330;DHT22;6734;48.638;8.896;2023-01-15T01:48:19;9.50;99.90
13330;DHT22;6734;48.638;8.896;2023-01-15T01:50:47;9.50;99.90
13330;DHT22;6734;48.638;8.896;2023-01-15T01:53:20;9.60;99.90
13330;DHT22;6734;48.638;8.896;2023-01-15T01:55:48;9.60;99.90
13330;DHT22;6734;48.638;8.896;2023-01-15T02:00:43;9.90;99.90
13330;DHT22;6734;48.638;8.896;2023-01-15T02:03:10;9.90;99.90
13330;DHT22;6734;48.638;8.896;2023-01-15T02:05:39;9.90;99.90
13330;DHT22;6734;48.638;8.896;2023-01-15T02:08:06;10.00;99.90
13330;DHT22;6734;48.638;8.896;2023-01-15T02:10:32;10.00;99.90
13330;DHT22;6734;48.638;8.896;2023-01-15T02:13:16;10.10;99.90
13330;DHT22;6734;48.638;8.896;2023-01-15T02:15:49;10.20;99.90
13330;DHT22;6734;48.638;8.896;2023-01-15T02:21:09;10.30;99.90
13330;DHT22;6734;48.638;8.896;2023-01-15T02:29:09;10.40;99.90
13330;DHT22;6734;48.638;8.896;2023-01-15T02:34:14;10.40;99.90
13330;DHT22;6734;48.638;8.896;2023-01-15T02:36:44;10.50;99.90
13330;DHT22;6734;48.638;8.896;2023-01-15T02:39:12;10.50;99.90
13330;DHT22;6734;48.638;8.896;2023-01-15T02:49:03;10.50;99.90
13330;DHT22;6734;48.638;8.896;2023-01-15T02:51:36;10.50;99.90
13330;DHT22;6734;48.638;8.896;2023-01-15T02:54:06;10.40;99.90
13330;DHT22;6734;48.638;8.896;2023-01-15T02:56:34;10.30;99.90
13330;DHT22;6734;48.638;8.896;2023-01-15T02:59:05;10.40;99.90
13330;DHT22;6734;48.638;8.896;2023-01-15T03:01:38;10.30;99.90
13330;DHT22;6734;48.638;8.896;2023-01-15T03:04:36;10.30;99.90
13330;DHT22;6734;48.638;8.896;2023-01-15T03:07:15;10.20;99.90
13330;DHT22;6734;48.638;8.896;2023-01-15T03:17:14;10.00;99.90
13330;DHT22;6734;48.638;8.896;2023-01-15T03:20:11;10.00;99.90
13330;DHT22;6734;48.638;8.896;2023-01-15T03:22:43;10.10;99.90
13330;DHT22;6734;48.638;8.896;2023-01-15T03:27:38;10.10;99.90
13330;DHT22;6734;48.638;8.896;2023-01-15T03:30:16;10.00;99.90
13330;DHT22;6734;48.638;8.896;2023-01-15T03:32:42;10.00;99.90
13330;DHT22;6734;48.638;8.896;2023-01-15T03:37:54;10.00;99.90
13330;DHT22;6734;48.638;8.896;2023-01-15T03:42:54;10.00;99.90
13330;DHT22;6734;48.638;8.896;2023-01-15T03:45:41;10.00;99.90
13330;DHT22;6734;48.638;8.896;2023-01-15T03:53:36;10.30;99.90
13330;DHT22;6734;48.638;8.896;2023-01-15T03:59:08;10.20;99.90
13330;DHT22;6734;48.638;8.896;2023-01-15T04:01:38;10.30;99.90
13330;DHT22;6734;48.638;8.896;2023-01-15T04:04:05;10.30;99.90
13330;DHT22;6734;48.638;8.896;2023-01-15T04:06:33;10.20;99.90
13330;DHT22;6734;48.638;8.896;2023-01-15T04:08:59;10.30;99.90
13330;DHT22;6734;48.638;8.896;2023-01-15T04:11:25;10.30;99.90
13330;DHT22;6734;48.638;8.896;2023-01-15T04:16:27;10.40;99.90
13330;DHT22;6734;48.638;8.896;2023-01-15T04:21:19;10.20;99.90
13330;DHT22;6734;48.638;8.896;2023-01-15T04:23:45;10.20;99.90
13330;DHT22;6734;48.638;8.896;2023-01-15T04:26:11;10.10;99.90
13330;DHT22;6734;48.638;8.896;2023-01-15T04:28:37;10.20;99.90
13330;DHT22;6734;48.638;8.896;2023-01-15T04:40:49;10.10;99.90
13330;DHT22;6734;48.638;8.896;2023-01-15T04:48:47;10.10;99.90
13330;DHT22;6734;48.638;8.896;2023-01-15T04:51:13;10.10;99.90
13330;DHT22;6734;48.638;8.896;2023-01-15T04:53:38;10.10;99.90
13330;DHT22;6734;48.638;8.896;2023-01-15T04:56:04;10.20;99.90
13330;DHT22;6734;48.638;8.896;2023-01-15T04:58:31;10.20;99.90
13330;DHT22;6734;48.638;8.896;2023-01-15T05:05:53;10.30;99.90
13330;DHT22;6734;48.638;8.896;2023-01-15T05:08:19;10.30;99.90
13330;DHT22;6734;48.638;8.896;2023-01-15T05:10:44;10.30;99.90
13330;DHT22;6734;48.638;8.896;2023-01-15T05:13:10;10.10;99.90
13330;DHT22;6734;48.638;8.896;2023-01-15T05:18:03;10.20;99.90
13330;DHT22;6734;48.638;8.896;2023-01-15T05:20:29;10.10;99.90
13330;DHT22;6734;48.638;8.896;2023-01-15T05:22:54;10.00;99.90
13330;DHT22;6734;48.638;8.896;2023-01-15T05:25:20;10.00;99.90
13330;DHT22;6734;48.638;8.896;2023-01-15T05:27:45;10.00;99.90
13330;DHT22;6734;48.638;8.896;2023-01-15T05:32:38;9.70;99.90
13330;DHT22;6734;48.638;8.896;2023-01-15T05:37:30;8.40;99.90
13330;DHT22;6734;48.638;8.896;2023-01-15T05:42:21;7.70;99.90
13330;DHT22;6734;48.638;8.896;2023-01-15T05:49:39;7.60;99.90
13330;DHT22;6734;48.638;8.896;2023-01-15T05:52:05;7.60;99.90
13330;DHT22;6734;48.638;8.896;2023-01-15T05:54:32;7.60;99.90
13330;DHT22;6734;48.638;8.896;2023-01-15T05:59:27;7.40;99.90
13330;DHT22;6734;48.638;8.896;2023-01-15T06:01:53;7.40;99.90
13330;DHT22;6734;48.638;8.896;2023-01-15T06:04:20;7.30;99.90
13330;DHT22;6734;48.638;8.896;2023-01-15T06:06:48;7.20;99.90
13330;DHT22;6734;48.638;8.896;2023-01-15T06:09:14;7.30;99.90
13330;DHT22;6734;48.638;8.896;2023-01-15T06:11:40;7.20;99.90
13330;DHT22;6734;48.638;8.896;2023-01-15T06:14:05;7.00;99.90
13330;DHT22;6734;48.638;8.896;2023-01-15T06:16:32;7.00;99.90
13330;DHT22;6734;48.638;8.896;2023-01-15T06:21:32;6.90;99.90
13330;DHT22;6734;48.638;8.896;2023-01-15T06:23:58;6.90;99.90
13330;DHT22;6734;48.638;8.896;2023-01-15T06:33:44;6.50;99.90
13330;DHT22;6734;48.638;8.896;2023-01-15T06:41:08;6.30;99.90
13330;DHT22;6734;48.638;8.896;2023-01-15T06:43:55;6.40;99.90
13330;DHT22;6734;48.638;8.896;2023-01-15T06:46:45;6.30;99.90
13330;DHT22;6734;48.638;8.896;2023-01-15T06:49:30;6.30;99.90
13330;DHT22;6734;48.638;8.896;2023-01-15T06:54:23;6.20;99.90
13330;DHT22;6734;48.638;8.896;2023-01-15T06:56:48;6.20;99.90
13330;DHT22;6734;48.638;8.896;2023-01-15T06:59:14;6.20;99.90
13330;DHT22;6734;48.638;8.896;2023-01-15T07:01:39;5.90;99.90
13330;DHT22;6734;48.638;8.896;2023-01-15T07:06:31;5.90;99.90
13330;DHT22;6734;48.638;8.896;2023-01-15T07:11:23;5.80;99.90
13330;DHT22;6734;48.638;8.896;2023-01-15T07:13:49;5.80;99.90
13330;DHT22;6734;48.638;8.896;2023-01-15T07:16:14;5.80;99.90
13330;DHT22;6734;48.638;8.896;2023-01-15T07:18:54;5.80;99.90
13330;DHT22;6734;48.638;8.896;2023-01-15T07:21:20;5.70;99.90
13330;DHT22;6734;48.638;8.896;2023-01-15T07:26:12;5.60;99.90
13330;DHT22;6734;48.638;8.896;2023-01-15T07:28:37;5.60;99.90
13330;DHT22;6734;48.638;8.896;2023-01-15T07:40:48;5.40;99.90
13330;DHT22;6734;48.638;8.896;2023-01-15T07:46:21;5.30;99.90
13330;DHT22;6734;48.638;8.896;2023-01-15T07:51:52;5.30;99.90
13330;DHT22;6734;48.638;8.896;2023-01-15T07:54:18;5.20;99.90
13330;DHT22;6734;48.638;8.896;2023-01-15T07:56:43;5.10;99.90
13330;DHT22;6734;48.638;8.896;2023-01-15T07:59:09;5.10;99.90
13330;DHT22;6734;48.638;8.896;2023-01-15T08:01:34;5.00;99.90
13330;DHT22;6734;48.638;8.896;2023-01-15T08:06:26;5.00;99.90
13330;DHT22;6734;48.638;8.896;2023-01-15T08:08:51;5.10;99.90
13330;DHT22;6734;48.638;8.896;2023-01-15T08:14:01;5.10;99.90
13330;DHT22;6734;48.638;8.896;2023-01-15T08:19:11;5.10;99.90
13330;DHT22;6734;48.638;8.896;2023-01-15T08:21:37;5.10;99.90
13330;DHT22;6734;48.638;8.896;2023-01-15T08:28:54;5.10;99.90
13330;DHT22;6734;48.638;8.896;2023-01-15T08:38:38;5.00;99.90
13330;DHT22;6734;48.638;8.896;2023-01-15T08:41:04;4.90;99.90
13330;DHT22;6734;48.638;8.896;2023-01-15T08:43:31;5.00;99.90
13330;DHT22;6734;48.638;8.896;2023-01-15T08:48:28;5.00;99.90
13330;DHT22;6734;48.638;8.896;2023-01-15T08:50:54;4.90;99.90
13330;DHT22;6734;48.638;8.896;2023-01-15T08:53:20;4.90;99.90
13330;DHT22;6734;48.638;8.896;2023-01-15T08:55:46;4.90;99.90
13330;DHT22;6734;48.638;8.896;2023-01-15T09:00:38;4.90;99.90
13330;DHT22;6734;48.638;8.896;2023-01-15T09:03:03;4.80;99.90
13330;DHT22;6734;48.638;8.896;2023-01-15T09:05:29;4.80;99.90
13330;DHT22;6734;48.638;8.896;2023-01-15T09:07:55;4.80;99.90
13330;DHT22;6734;48.638;8.896;2023-01-15T09:12:47;4.80;99.90
13330;DHT22;6734;48.638;8.896;2023-01-15T09:15:13;4.70;99.90
13330;DHT22;6734;48.638;8.896;2023-01-15T09:17:38;4.70;99.90
13330;DHT22;6734;48.638;8.896;2023-01-15T09:20:08;4.70;99.90
13330;DHT22;6734;48.638;8.896;2023-01-15T09:22:34;4.80;99.90
13330;DHT22;6734;48.638;8.896;2023-01-15T09:25:00;4.70;99.90
13330;DHT22;6734;48.638;8.896;2023-01-15T09:29:53;4.70;99.90
13330;DHT22;6734;48.638;8.896;2023-01-15T09:32:18;4.70;99.90
13330;DHT22;6734;48.638;8.896;2023-01-15T09:34:44;4.70;99.90
13330;DHT22;6734;48.638;8.896;2023-01-15T09:37:09;4.70;99.90
13330;DHT22;6734;48.638;8.896;2023-01-15T09:39:37;4.60;99.90
13330;DHT22;6734;48.638;8.896;2023-01-15T09:47:25;4.40;99.90
13330;DHT22;6734;48.638;8.896;2023-01-15T09:57:44;4.30;99.90
13330;DHT22;6734;48.638;8.896;2023-01-15T10:00:22;4.30;99.90
13330;DHT22;6734;48.638;8.896;2023-01-15T10:05:22;4.20;99.90
13330;DHT22;6734;48.638;8.896;2023-01-15T10:08:02;4.20;99.90
13330;DHT22;6734;48.638;8.896;2023-01-15T10:13:42;4.20;99.90
13330;DHT22;6734;48.638;8.896;2023-01-15T10:18:36;4.20;99.90
13330;DHT22;6734;48.638;8.896;2023-01-15T10:21:47;4.20;99.90
13330;DHT22;6734;48.638;8.896;2023-01-15T10:26:35;4.20;99.90
13330;DHT22;6734;48.638;8.896;2023-01-15T10:32:02;4.00;99.90
13330;DHT22;6734;48.638;8.896;2023-01-15T10:37:16;4.00;99.90
13330;DHT22;6734;48.638;8.896;2023-01-15T10:42:59;3.80;99.90
13330;DHT22;6734;48.638;8.896;2023-01-15T10:45:33;3.80;99.90
13330;DHT22;6734;48.638;8.896;2023-01-15T10:50:46;3.70;99.90
13330;DHT22;6734;48.638;8.896;2023-01-15T10:53:28;3.60;99.90
13330;DHT22;6734;48.638;8.896;2023-01-15T11:01:14;3.60;99.90
13330;DHT22;6734;48.638;8.896;2023-01-15T11:03:42;4.10;99.90
13330;DHT22;6734;48.638;8.896;2023-01-15T11:08:42;4.40;99.90
13330;DHT22;6734;48.638;8.896;2023-01-15T11:11:24;4.20;99.90
13330;DHT22;6734;48.638;8.896;2023-01-15T11:14:09;4.60;99.90
13330;DHT22;6734;48.638;8.896;2023-01-15T11:16:54;4.20;99.90
13330;DHT22;6734;48.638;8.896;2023-01-15T11:19:37;4.30;99.90
13330;DHT22;6734;48.638;8.896;2023-01-15T11:24:49;3.80;99.90
13330;DHT22;6734;48.638;8.896;2023-01-15T11:27:19;3.70;99.90
13330;DHT22;6734;48.638;8.896;2023-01-15T11:29:49;3.80;99.90
13330;DHT22;6734;48.638;8.896;2023-01-15T11:34:57;3.40;99.90
13330;DHT22;6734;48.638;8.896;2023-01-15T11:37:24;3.60;99.90
13330;DHT22;6734;48.638;8.896;2023-01-15T11:39:57;3.40;99.90
13330;DHT22;6734;48.638;8.896;2023-01-15T11:45:19;3.10;99.90
13330;DHT22;6734;48.638;8.896;2023-01-15T11:53:36;3.10;99.90
13330;DHT22;6734;48.638;8.896;2023-01-15T11:56:07;3.00;99.90
13330;DHT22;6734;48.638;8.896;2023-01-15T11:58:48;3.40;99.90
13330;DHT22;6734;48.638;8.896;2023-01-15T12:01:29;3.20;99.90
13330;DHT22;6734;48.638;8.896;2023-01-15T12:03:57;3.30;99.90
13330;DHT22;6734;48.638;8.896;2023-01-15T12:06:23;3.30;99.90
13330;DHT22;6734;48.638;8.896;2023-01-15T12:25:19;2.90;99.90
13330;DHT22;6734;48.638;8.896;2023-01-15T12:28:17;2.80;99.90
13330;DHT22;6734;48.638;8.896;2023-01-15T12:39:39;2.70;99.90
13330;DHT22;6734;48.638;8.896;2023-01-15T12:42:10;2.60;99.90
13330;DHT22;6734;48.638;8.896;2023-01-15T12:45:00;2.70;99.90
13330;DHT22;6734;48.638;8.896;2023-01-15T12:47:51;2.80;99.90
13330;DHT22;6734;48.638;8.896;2023-01-15T12:55:29;3.00;99.90
13330;DHT22;6734;48.638;8.896;2023-01-15T12:57:59;3.00;99.90
13330;DHT22;6734;48.638;8.896;2023-01-15T13:00:36;3.00;99.90
13330;DHT22;6734;48.638;8.896;2023-01-15T13:03:23;3.10;99.90
13330;DHT22;6734;48.638;8.896;2023-01-15T13:05:52;3.10;99.90
13330;DHT22;6734;48.638;8.896;2023-01-15T13:10:51;3.10;99.90
13330;DHT22;6734;48.638;8.896;2023-01-15T13:13:23;3.20;99.90
13330;DHT22;6734;48.638;8.896;2023-01-15T13:21:12;3.30;99.90
13330;DHT22;6734;48.638;8.896;2023-01-15T13:23:57;3.40;99.90
13330;DHT22;6734;48.638;8.896;2023-01-15T13:26:59;3.40;99.90
13330;DHT22;6734;48.638;8.896;2023-01-15T13:29:45;3.40;99.90
13330;DHT22;6734;48.638;8.896;2023-01-15T13:32:23;3.50;99.90
13330;DHT22;6734;48.638;8.896;2023-01-15T13:37:46;3.60;99.90
13330;DHT22;6734;48.638;8.896;2023-01-15T13:40:24;3.80;99.90
13330;DHT22;6734;48.638;8.896;2023-01-15T13:42:52;3.90;81.90
13330;DHT22;6734;48.638;8.896;2023-01-15T13:45:23;4.60;1.00
13330;DHT22;6734;48.638;8.896;2023-01-15T13:47:57;4.90;1.00
13330;DHT22;6734;48.638;8.896;2023-01-15T13:50:28;5.30;1.00
13330;DHT22;6734;48.638;8.896;2023-01-15T13:55:34;5.50;1.00
13330;DHT22;6734;48.638;8.896;2023-01-15T13:58:01;5.20;99.90
13330;DHT22;6734;48.638;8.896;2023-01-15T14:00:36;5.30;1.00
13330;DHT22;6734;48.638;8.896;2023-01-15T14:03:27;5.00;1.00
13330;DHT22;6734;48.638;8.896;2023-01-15T14:08:25;4.70;99.90
13330;DHT22;6734;48.638;8.896;2023-01-15T14:21:49;5.10;99.90
13330;DHT22;6734;48.638;8.896;2023-01-15T14:35:23;4.60;99.90
13330;DHT22;6734;48.638;8.896;2023-01-15T14:37:55;4.70;1.00
13330;DHT22;6734;48.638;8.896;2023-01-15T14:42:52;4.00;1.00
13330;DHT22;6734;48.638;8.896;2023-01-15T14:50:44;3.90;1.00
13330;DHT22;6734;48.638;8.896;2023-01-15T14:55:45;3.80;1.00
13330;DHT22;6734;48.638;8.896;2023-01-15T15:09:02;3.80;66.10
13330;DHT22;6734;48.638;8.896;2023-01-15T15:11:40;3.70;96.50
13330;DHT22;6734;48.638;8.896;2023-01-15T15:14:25;3.70;99.90
13330;DHT22;6734;48.638;8.896;2023-01-15T15:16:54;3.60;99.90
13330;DHT22;6734;48.638;8.896;2023-01-15T15:19:37;3.60;99.90
13330;DHT22;6734;48.638;8.896;2023-01-15T15:22:11;3.60;99.90
13330;DHT22;6734;48.638;8.896;2023-01-15T15:24:48;3.60;99.90
13330;DHT22;6734;48.638;8.896;2023-01-15T15:29:41;3.50;99.90
13330;DHT22;6734;48.638;8.896;2023-01-15T15:32:19;3.60;99.90
13330;DHT22;6734;48.638;8.896;2023-01-15T15:34:48;3.60;71.10
13330;DHT22;6734;48.638;8.896;2023-01-15T15:37:21;3.40;99.90
13330;DHT22;6734;48.638;8.896;2023-01-15T15:39:51;3.30;99.90
13330;DHT22;6734;48.638;8.896;2023-01-15T15:42:31;3.30;99.90
13330;DHT22;6734;48.638;8.896;2023-01-15T15:45:23;3.20;99.90
13330;DHT22;6734;48.638;8.896;2023-01-15T15:48:32;3.20;99.90
13330;DHT22;6734;48.638;8.896;2023-01-15T15:54:00;3.30;99.90
13330;DHT22;6734;48.638;8.896;2023-01-15T15:56:26;3.10;99.90
13330;DHT22;6734;48.638;8.896;2023-01-15T16:01:19;3.20;99.90
13330;DHT22;6734;48.638;8.896;2023-01-15T16:03:47;3.20;99.90
13330;DHT22;6734;48.638;8.896;2023-01-15T16:06:22;3.10;99.90
13330;DHT22;6734;48.638;8.896;2023-01-15T16:08:57;3.10;99.90
13330;DHT22;6734;48.638;8.896;2023-01-15T16:11:30;3.10;99.90
13330;DHT22;6734;48.638;8.896;2023-01-15T16:13:58;3.00;99.90
13330;DHT22;6734;48.638;8.896;2023-01-15T16:16:26;3.00;99.90
13330;DHT22;6734;48.638;8.896;2023-01-15T16:18:55;3.00;99.90
13330;DHT22;6734;48.638;8.896;2023-01-15T16:21:28;2.90;99.90
13330;DHT22;6734;48.638;8.896;2023-01-15T16:23:55;2.90;99.90
13330;DHT22;6734;48.638;8.896;2023-01-15T16:26:23;2.80;99.90
13330;DHT22;6734;48.638;8.896;2023-01-15T16:28:56;2.80;99.90
13330;DHT22;6734;48.638;8.896;2023-01-15T16:31:22;2.80;99.90
13330;DHT22;6734;48.638;8.896;2023-01-15T16:33:55;2.70;99.90
13330;DHT22;6734;48.638;8.896;2023-01-15T16:36:23;2.70;99.90
13330;DHT22;6734;48.638;8.896;2023-01-15T16:38:50;2.60;99.90
13330;DHT22;6734;48.638;8.896;2023-01-15T16:41:24;2.50;99.90
13330;DHT22;6734;48.638;8.896;2023-01-15T16:48:47;2.60;99.90
13330;DHT22;6734;48.638;8.896;2023-01-15T16:51:34;2.50;99.90
13330;DHT22;6734;48.638;8.896;2023-01-15T16:54:03;2.50;99.90
13330;DHT22;6734;48.638;8.896;2023-01-15T16:59:02;2.50;99.90
13330;DHT22;6734;48.638;8.896;2023-01-15T17:01:42;2.40;99.90
13330;DHT22;6734;48.638;8.896;2023-01-15T17:04:27;2.40;99.90
13330;DHT22;6734;48.638;8.896;2023-01-15T17:06:58;2.40;99.90
13330;DHT22;6734;48.638;8.896;2023-01-15T17:09:24;2.40;99.90
13330;DHT22;6734;48.638;8.896;2023-01-15T17:11:51;2.40;99.90
13330;DHT22;6734;48.638;8.896;2023-01-15T17:14:26;2.30;99.90
13330;DHT22;6734;48.638;8.896;2023-01-15T17:19:44;2.20;99.90
13330;DHT22;6734;48.638;8.896;2023-01-15T17:22:14;2.30;99.90
13330;DHT22;6734;48.638;8.896;2023-01-15T17:24:51;2.30;99.90
13330;DHT22;6734;48.638;8.896;2023-01-15T17:27:17;2.40;99.90
13330;DHT22;6734;48.638;8.896;2023-01-15T17:29:43;2.40;99.90
13330;DHT22;6734;48.638;8.896;2023-01-15T17:32:13;2.40;99.90
13330;DHT22;6734;48.638;8.896;2023-01-15T17:34:40;2.40;99.90
13330;DHT22;6734;48.638;8.896;2023-01-15T17:37:05;2.40;99.90
13330;DHT22;6734;48.638;8.896;2023-01-15T17:39:31;2.40;99.90
13330;DHT22;6734;48.638;8.896;2023-01-15T17:41:57;2.30;99.90
13330;DHT22;6734;48.638;8.896;2023-01-15T17:44:23;2.30;99.90
13330;DHT22;6734;48.638;8.896;2023-01-15T17:46:48;2.30;99.90
13330;DHT22;6734;48.638;8.896;2023-01-15T17:49:14;2.40;99.90
13330;DHT22;6734;48.638;8.896;2023-01-15T17:51:40;2.30;99.90
13330;DHT22;6734;48.638;8.896;2023-01-15T17:54:05;2.40;99.90
13330;DHT22;6734;48.638;8.896;2023-01-15T17:59:16;2.30;99.90
13330;DHT22;6734;48.638;8.896;2023-01-15T18:02:00;2.40;99.90
13330;DHT22;6734;48.638;8.896;2023-01-15T18:04:50;2.40;99.90
13330;DHT22;6734;48.638;8.896;2023-01-15T18:07:38;2.50;99.90
13330;DHT22;6734;48.638;8.896;2023-01-15T18:10:07;2.50;99.90
13330;DHT22;6734;48.638;8.896;2023-01-15T18:12:33;2.40;99.90
13330;DHT22;6734;48.638;8.896;2023-01-15T18:14:59;2.50;99.90
13330;DHT22;6734;48.638;8.896;2023-01-15T18:19:51;2.40;99.90
13330;DHT22;6734;48.638;8.896;2023-01-15T18:22:16;2.40;99.90
13330;DHT22;6734;48.638;8.896;2023-01-15T18:24:43;2.40;99.90
13330;DHT22;6734;48.638;8.896;2023-01-15T18:27:09;2.60;99.90
13330;DHT22;6734;48.638;8.896;2023-01-15T18:29:34;2.50;99.90
13330;DHT22;6734;48.638;8.896;2023-01-15T18:32:07;2.40;99.90
13330;DHT22;6734;48.638;8.896;2023-01-15T18:34:33;2.40;99.90
13330;DHT22;6734;48.638;8.896;2023-01-15T18:36:59;2.30;99.90
13330;DHT22;6734;48.638;8.896;2023-01-15T18:39:24;2.40;99.90
13330;DHT22;6734;48.638;8.896;2023-01-15T18:41:50;2.40;99.90
13330;DHT22;6734;48.638;8.896;2023-01-15T18:44:18;2.40;99.90
13330;DHT22;6734;48.638;8.896;2023-01-15T18:47:11;2.50;99.90
13330;DHT22;6734;48.638;8.896;2023-01-15T18:49:39;2.50;99.90
13330;DHT22;6734;48.638;8.896;2023-01-15T18:52:05;2.50;99.90
13330;DHT22;6734;48.638;8.896;2023-01-15T18:54:49;2.60;99.90
13330;DHT22;6734;48.638;8.896;2023-01-15T18:57:15;2.60;66.70
13330;DHT22;6734;48.638;8.896;2023-01-15T19:02:08;2.60;1.00
13330;DHT22;6734;48.638;8.896;2023-01-15T19:04:34;2.80;1.00
13330;DHT22;6734;48.638;8.896;2023-01-15T19:07:00;2.70;1.00
13330;DHT22;6734;48.638;8.896;2023-01-15T19:09:28;2.70;1.00
13330;DHT22;6734;48.638;8.896;2023-01-15T19:14:20;2.70;1.00
13330;DHT22;6734;48.638;8.896;2023-01-15T19:17:04;2.60;1.00
13330;DHT22;6734;48.638;8.896;2023-01-15T19:19:48;2.50;1.00
13330;DHT22;6734;48.638;8.896;2023-01-15T19:22:13;2.50;1.00
13330;DHT22;6734;48.638;8.896;2023-01-15T19:24:58;2.50;22.10
13330;DHT22;6734;48.638;8.896;2023-01-15T19:27:23;2.50;17.80
13330;DHT22;6734;48.638;8.896;2023-01-15T19:29:49;2.40;25.40
13330;DHT22;6734;48.638;8.896;2023-01-15T19:32:14;2.40;34.70
13330;DHT22;6734;48.638;8.896;2023-01-15T19:34:40;2.40;77.00
13330;DHT22;6734;48.638;8.896;2023-01-15T19:37:06;2.30;93.70
13330;DHT22;6734;48.638;8.896;2023-01-15T19:39:31;2.20;99.90
13330;DHT22;6734;48.638;8.896;2023-01-15T19:41:58;2.40;99.90
13330;DHT22;6734;48.638;8.896;2023-01-15T19:44:42;2.30;99.90
13330;DHT22;6734;48.638;8.896;2023-01-15T19:50:20;2.00;99.90
13330;DHT22;6734;48.638;8.896;2023-01-15T19:55:16;1.60;99.90
13330;DHT22;6734;48.638;8.896;2023-01-15T19:57:46;1.60;99.90
13330;DHT22;6734;48.638;8.896;2023-01-15T20:02:41;1.60;99.90
13330;DHT22;6734;48.638;8.896;2023-01-15T20:05:08;1.50;99.90
13330;DHT22;6734;48.638;8.896;2023-01-15T20:07:34;1.50;99.90
13330;DHT22;6734;48.638;8.896;2023-01-15T20:10:00;1.50;99.90
13330;DHT22;6734;48.638;8.896;2023-01-15T20:12:26;1.60;99.90
13330;DHT22;6734;48.638;8.896;2023-01-15T20:15:10;1.50;99.90
13330;DHT22;6734;48.638;8.896;2023-01-15T20:17:36;1.50;99.90
13330;DHT22;6734;48.638;8.896;2023-01-15T20:20:02;1.40;99.90
13330;DHT22;6734;48.638;8.896;2023-01-15T20:22:29;1.40;99.90
13330;DHT22;6734;48.638;8.896;2023-01-15T20:24:54;1.40;99.90
13330;DHT22;6734;48.638;8.896;2023-01-15T20:27:20;1.30;99.90
13330;DHT22;6734;48.638;8.896;2023-01-15T20:32:32;1.20;99.90
13330;DHT22;6734;48.638;8.896;2023-01-15T20:34:57;1.20;99.90
13330;DHT22;6734;48.638;8.896;2023-01-15T20:42:16;1.20;99.90
13330;DHT22;6734;48.638;8.896;2023-01-15T20:45:01;1.30;99.90
13330;DHT22;6734;48.638;8.896;2023-01-15T20:47:36;1.20;99.90
13330;DHT22;6734;48.638;8.896;2023-01-15T20:52:50;1.10;99.90
13330;DHT22;6734;48.638;8.896;2023-01-15T20:55:18;1.00;99.90
13330;DHT22;6734;48.638;8.896;2023-01-15T21:00:16;1.00;99.90
13330;DHT22;6734;48.638;8.896;2023-01-15T21:02:42;0.90;99.90
13330;DHT22;6734;48.638;8.896;2023-01-15T21:07:35;0.80;99.90
13330;DHT22;6734;48.638;8.896;2023-01-15T21:10:01;0.80;99.90
13330;DHT22;6734;48.638;8.896;2023-01-15T21:14:53;0.80;99.90
13330;DHT22;6734;48.638;8.896;2023-01-15T21:17:19;0.90;99.90
13330;DHT22;6734;48.638;8.896;2023-01-15T21:19:44;0.80;99.90
13330;DHT22;6734;48.638;8.896;2023-01-15T21:22:10;0.80;99.90
13330;DHT22;6734;48.638;8.896;2023-01-15T21:24:35;0.70;99.90
13330;DHT22;6734;48.638;8.896;2023-01-15T21:27:01;0.60;99.90
13330;DHT22;6734;48.638;8.896;2023-01-15T21:29:26;0.80;99.90
13330;DHT22;6734;48.638;8.896;2023-01-15T21:31:52;0.70;99.90
13330;DHT22;6734;48.638;8.896;2023-01-15T21:34:18;0.80;99.90
13330;DHT22;6734;48.638;8.896;2023-01-15T21:36:44;0.70;99.90
13330;DHT22;6734;48.638;8.896;2023-01-15T21:39:13;0.80;99.90
13330;DHT22;6734;48.638;8.896;2023-01-15T21:49:26;0.90;99.90
13330;DHT22;6734;48.638;8.896;2023-01-15T21:54:18;0.80;99.90
13330;DHT22;6734;48.638;8.896;2023-01-15T21:56:44;0.90;99.90
13330;DHT22;6734;48.638;8.896;2023-01-15T21:59:11;0.80;99.90
13330;DHT22;6734;48.638;8.896;2023-01-15T22:01:36;0.80;99.90
13330;DHT22;6734;48.638;8.896;2023-01-15T22:04:02;0.80;99.90
13330;DHT22;6734;48.638;8.896;2023-01-15T22:06:28;0.80;99.90
13330;DHT22;6734;48.638;8.896;2023-01-15T22:08:54;0.70;99.90
13330;DHT22;6734;48.638;8.896;2023-01-15T22:11:20;0.70;99.90
13330;DHT22;6734;48.638;8.896;2023-01-15T22:13:48;0.70;99.90
13330;DHT22;6734;48.638;8.896;2023-01-15T22:16:15;0.60;99.90
13330;DHT22;6734;48.638;8.896;2023-01-15T22:18:41;0.70;99.90
13330;DHT22;6734;48.638;8.896;2023-01-15T22:21:07;0.60;99.90
13330;DHT22;6734;48.638;8.896;2023-01-15T22:23:40;0.70;99.90
13330;DHT22;6734;48.638;8.896;2023-01-15T22:26:11;0.60;99.90
13330;DHT22;6734;48.638;8.896;2023-01-15T22:28:38;0.60;99.90
13330;DHT22;6734;48.638;8.896;2023-01-15T22:31:04;0.60;99.90
13330;DHT22;6734;48.638;8.896;2023-01-15T22:35:58;0.60;99.90
13330;DHT22;6734;48.638;8.896;2023-01-15T22:38:24;0.80;99.90
13330;DHT22;6734;48.638;8.896;2023-01-15T22:45:42;0.80;99.90
13330;DHT22;6734;48.638;8.896;2023-01-15T22:48:07;0.90;99.90
13330;DHT22;6734;48.638;8.896;2023-01-15T22:50:33;0.90;99.90
13330;DHT22;6734;48.638;8.896;2023-01-15T22:57:50;0.80;99.90